Time;durP1;ratioP1;P1;durP2;ratioP2;P2;SDS_P1;SDS_P2;PMS_P1;PMS_P2;Temp;Humidity;BMP_temperature;BMP_pressure;BME280_temperature;BME280_humidity;BME280_pressure;Samples;Min_cycle;Max_cycle;Signal;HPM_P1;HPM_P2
2022/03/26 00:01:54;;;;;;;26.42;10.00;;;8.50;97.20;;;8.47;61.57;102366.13;5243115;28;20405;-70
2022/03/26 00:04:28;;;;;;;29.02;11.38;;;8.40;97.50;;;8.44;61.97;102363.31;5262956;23;20030;-79
2022/03/26 00:07:00;;;;;;;33.17;10.48;;;8.40;97.90;;;8.41;62.08;102361.44;5223694;23;20602;-74
2022/03/26 00:09:32;;;;;;;26.10;9.88;;;8.40;97.90;;;8.37;62.37;102369.78;5224524;28;20103;-71
2022/03/26 00:12:08;;;;;;;22.98;9.73;;;8.30;98.20;;;8.35;62.39;102360.06;5224349;28;20585;-72
2022/03/26 00:14:40;;;;;;;33.20;11.10;;;8.30;98.30;;;8.32;62.49;102365.94;5224832;28;20456;-72
2022/03/26 00:17:12;;;;;;;29.30;10.98;;;8.20;98.60;;;8.34;62.22;102368.63;5224871;28;20049;-71
2022/03/26 00:19:44;;;;;;;28.65;9.60;;;8.30;98.50;;;8.34;62.24;102369.53;5225009;28;20123;-71
2022/03/26 00:22:16;;;;;;;27.50;9.98;;;8.20;98.30;;;8.30;61.95;102367.53;5224481;28;20132;-72
2022/03/26 00:24:48;;;;;;;28.27;10.35;;;8.20;98.20;;;8.27;61.76;102371.59;5224791;28;20049;-72
2022/03/26 00:27:22;;;;;;;30.17;10.93;;;8.20;98.10;;;8.21;62.02;102366.88;5224488;28;20053;-72
2022/03/26 00:29:54;;;;;;;29.20;10.63;;;8.10;98.40;;;8.15;62.61;102374.28;5222979;28;20452;-71
2022/03/26 00:32:26;;;;;;;29.30;10.65;;;8.10;98.60;;;8.10;62.68;102379.16;5219280;28;20041;-72
2022/03/26 00:34:58;;;;;;;32.20;11.18;;;8.10;98.80;;;8.05;62.94;102374.44;5218402;28;20379;-73
2022/03/26 00:37:30;;;;;;;32.03;11.15;;;8.00;99.00;;;8.03;63.30;102373.44;5232865;28;20071;-72
2022/03/26 00:40:03;;;;;;;30.85;10.43;;;8.00;99.00;;;8.01;63.69;102367.19;5248982;28;20054;-72
2022/03/26 00:42:36;;;;;;;30.95;11.13;;;8.00;99.30;;;8.02;63.21;102364.75;5249407;28;20063;-72
2022/03/26 00:45:10;;;;;;;28.55;9.88;;;7.90;99.10;;;7.99;62.94;102369.69;5248978;28;20559;-72
2022/03/26 00:47:42;;;;;;;27.33;9.32;;;7.90;99.10;;;7.96;63.46;102368.59;5248351;28;20048;-71
2022/03/26 00:50:14;;;;;;;26.65;9.95;;;7.90;99.30;;;7.93;63.52;102376.16;5249217;28;20044;-72
2022/03/26 00:52:47;;;;;;;28.98;11.13;;;7.90;99.30;;;7.86;63.32;102370.53;5249250;28;20131;-71
2022/03/26 00:55:19;;;;;;;29.25;9.90;;;7.80;99.30;;;7.82;63.37;102376.31;5248935;28;20513;-71
2022/03/26 00:57:53;;;;;;;26.33;9.30;;;7.80;99.70;;;7.79;63.92;102380.38;5247682;28;20386;-71
2022/03/26 01:00:26;;;;;;;26.73;9.13;;;7.70;99.50;;;7.75;63.86;102383.53;5248742;28;20139;-72
2022/03/26 01:03:02;;;;;;;21.48;8.75;;;7.70;99.70;;;7.69;64.39;102383.09;5248671;28;20057;-73
2022/03/26 01:05:34;;;;;;;27.40;8.93;;;7.70;99.90;;;7.64;64.52;102375.00;5248486;28;20045;-71
2022/03/26 01:08:07;;;;;;;27.48;9.02;;;7.60;99.90;;;7.60;64.32;102378.16;5237217;28;20416;-71
2022/03/26 01:10:41;;;;;;;23.77;9.10;;;7.60;99.90;;;7.55;64.19;102370.03;5248221;28;20051;-72
2022/03/26 01:13:15;;;;;;;26.05;8.95;;;7.50;99.90;;;7.50;64.16;102360.13;5229011;28;20041;-72
2022/03/26 01:15:47;;;;;;;26.65;9.48;;;7.50;99.90;;;7.46;64.79;102365.88;5227485;28;20413;-71
2022/03/26 01:18:19;;;;;;;25.58;9.85;;;7.50;99.90;;;7.45;64.95;102369.28;5227146;28;20055;-71
2022/03/26 01:20:51;;;;;;;21.05;8.57;;;7.40;99.90;;;7.42;65.20;102369.03;5219753;28;20053;-71
2022/03/26 01:23:24;;;;;;;30.42;9.48;;;7.40;99.90;;;7.39;64.67;102361.06;5233532;28;20407;-72
2022/03/26 01:25:56;;;;;;;22.55;9.25;;;7.40;99.90;;;7.34;65.31;102355.53;5248256;28;20170;-72
2022/03/26 01:28:30;;;;;;;22.02;8.73;;;7.30;99.90;;;7.29;65.15;102360.38;5247924;28;20051;-72
2022/03/26 01:31:02;;;;;;;25.67;9.68;;;7.30;99.90;;;7.27;65.04;102356.75;5248595;28;20130;-71
2022/03/26 01:33:35;;;;;;;31.83;11.45;;;7.30;99.90;;;7.24;65.23;102353.06;5248629;28;20078;-72
2022/03/26 01:36:11;;;;;;;25.20;9.18;;;7.20;99.90;;;7.20;65.23;102351.03;5248071;28;20413;-72
2022/03/26 01:38:45;;;;;;;26.63;9.50;;;7.20;99.90;;;7.17;65.53;102355.97;5225822;28;20072;-71
2022/03/26 01:41:19;;;;;;;26.10;9.43;;;7.20;99.90;;;7.12;65.65;102360.84;5206963;28;20419;-71
2022/03/26 01:43:52;;;;;;;28.67;9.95;;;7.10;99.90;;;7.07;65.46;102362.19;5206666;28;20049;-71
2022/03/26 01:46:24;;;;;;;26.27;10.00;;;7.10;99.90;;;7.03;65.70;102353.28;5206732;28;20085;-72
2022/03/26 01:48:56;;;;;;;26.85;9.35;;;7.10;99.90;;;6.98;66.15;102348.56;5205472;28;20095;-72
2022/03/26 01:51:28;;;;;;;25.35;8.75;;;7.00;99.90;;;6.96;66.27;102353.59;5207086;28;20052;-71
2022/03/26 01:54:01;;;;;;;23.45;9.15;;;7.00;99.90;;;6.93;66.21;102349.91;5206188;28;20045;-71
2022/03/26 01:56:34;;;;;;;25.40;9.15;;;6.90;99.90;;;6.90;66.68;102347.06;5206462;28;20057;-72
2022/03/26 01:59:08;;;;;;;27.70;9.95;;;6.90;99.90;;;6.87;66.92;102352.03;5206092;28;20092;-71
2022/03/26 02:01:42;;;;;;;26.48;10.48;;;6.90;99.90;;;6.84;67.34;102356.97;5205839;28;20128;-72
2022/03/26 02:04:14;;;;;;;26.10;9.82;;;6.80;99.90;;;6.80;67.44;102345.50;5239236;28;20052;-72
2022/03/26 02:06:48;;;;;;;26.35;9.77;;;6.80;99.90;;;6.77;67.62;102340.06;5247554;28;20547;-72
2022/03/26 02:09:20;;;;;;;23.70;8.40;;;6.80;99.90;;;6.74;67.40;102345.94;5247599;28;20048;-72
2022/03/26 02:11:52;;;;;;;30.42;9.70;;;6.80;99.90;;;6.73;67.36;102348.44;5246942;28;20078;-71
2022/03/26 02:14:26;;;;;;;27.75;9.43;;;6.70;99.90;;;6.72;67.35;102350.13;5247453;28;20123;-72
2022/03/26 02:16:58;;;;;;;25.60;9.75;;;6.80;99.90;;;6.73;68.29;102351.03;5246861;28;20048;-73
2022/03/26 02:19:30;;;;;;;27.65;9.73;;;6.70;99.90;;;6.72;68.01;102349.22;5247100;28;20477;-71
2022/03/26 02:22:04;;;;;;;28.88;9.52;;;6.70;99.90;;;6.68;67.94;102353.25;5236840;28;20470;-72
2022/03/26 02:24:36;;;;;;;25.83;9.65;;;6.70;99.90;;;6.64;67.83;102358.97;5226599;28;20487;-71
2022/03/26 02:27:09;;;;;;;32.55;10.52;;;6.70;99.90;;;6.60;67.76;102359.56;5225884;28;20055;-72
2022/03/26 02:29:42;;;;;;;26.25;9.25;;;6.70;99.90;;;6.55;68.42;102355.72;5226639;28;20049;-72
2022/03/26 02:32:16;;;;;;;27.60;9.77;;;6.60;99.90;;;6.53;68.19;102358.19;5226757;28;20072;-71
2022/03/26 02:34:49;;;;;;;29.80;9.77;;;6.60;99.90;;;6.49;68.64;102357.84;5226402;28;20536;-72
2022/03/26 02:37:24;;;;;;;25.27;9.20;;;6.50;99.90;;;6.47;69.05;102354.22;5225940;28;20656;-71
2022/03/26 02:39:56;;;;;;;25.50;8.75;;;6.50;99.90;;;6.43;68.94;102353.09;5226297;28;20049;-71
2022/03/26 02:42:28;;;;;;;29.55;10.20;;;6.50;99.90;;;6.41;69.11;102353.78;5226132;28;20057;-72
2022/03/26 02:45:00;;;;;;;30.50;10.63;;;6.50;99.90;;;6.36;68.98;102360.28;5225966;28;20045;-73
2022/03/26 02:47:32;;;;;;;29.38;11.05;;;6.40;99.90;;;6.33;69.08;102357.47;5226678;28;20055;-72
2022/03/26 02:50:05;;;;;;;30.80;11.23;;;6.40;99.90;;;6.29;69.70;102358.00;5225641;28;20045;-71
2022/03/26 02:52:39;;;;;;;31.70;10.20;;;6.40;99.90;;;6.24;69.70;102363.72;5225738;28;20132;-72
2022/03/26 02:55:11;;;;;;;27.20;9.27;;;6.30;99.90;;;6.21;69.68;102357.41;5225986;28;20045;-74
2022/03/26 02:57:46;;;;;;;27.70;9.52;;;6.30;99.90;;;6.17;70.00;102357.97;5225680;28;20142;-72
2022/03/26 03:00:18;;;;;;;28.77;11.50;;;6.20;99.90;;;6.13;69.70;102354.25;5225557;28;20474;-71
2022/03/26 03:02:50;;;;;;;35.08;12.20;;;6.20;99.90;;;6.11;70.13;102358.38;5225717;28;20485;-71
2022/03/26 03:05:22;;;;;;;30.05;11.63;;;6.20;99.90;;;6.08;70.04;102358.16;5225646;28;20040;-72
2022/03/26 03:07:56;;;;;;;28.70;10.85;;;6.10;99.90;;;6.07;69.67;102352.88;5225949;28;20493;-72
2022/03/26 03:10:29;;;;;;;24.58;8.88;;;6.10;99.90;;;6.03;69.71;102354.31;5225774;28;20548;-72
2022/03/26 03:13:01;;;;;;;22.58;8.77;;;6.10;99.90;;;6.01;69.84;102358.47;5225956;28;20509;-71
2022/03/26 03:15:33;;;;;;;25.25;9.73;;;6.10;99.90;;;5.99;69.72;102357.44;5225686;28;20056;-71
2022/03/26 03:18:05;;;;;;;29.33;10.15;;;6.10;99.90;;;5.96;69.55;102363.28;5225188;28;20413;-72
2022/03/26 03:20:37;;;;;;;23.33;9.55;;;6.00;99.90;;;5.94;69.68;102364.84;5225757;28;20071;-71
2022/03/26 03:23:12;;;;;;;28.15;9.20;;;6.00;99.90;;;5.93;69.87;102364.72;5225449;28;20049;-71
2022/03/26 03:25:44;;;;;;;26.63;8.88;;;6.00;99.90;;;5.90;69.94;102367.03;5226165;28;20587;-72
2022/03/26 03:28:16;;;;;;;28.00;9.30;;;6.00;99.90;;;5.89;69.80;102370.41;5225161;28;20055;-71
2022/03/26 03:30:48;;;;;;;26.15;8.90;;;5.90;99.90;;;5.86;69.77;102371.06;5225313;28;20059;-72
2022/03/26 03:33:23;;;;;;;25.23;9.10;;;5.90;99.90;;;5.82;69.72;102366.44;5223903;28;20045;-71
2022/03/26 03:35:55;;;;;;;25.17;8.93;;;5.90;99.90;;;5.80;69.95;102369.66;5224550;28;20413;-72
2022/03/26 03:38:28;;;;;;;22.38;8.65;;;5.90;99.90;;;5.81;69.73;102372.41;5224775;28;20045;-73
2022/03/26 03:41:00;;;;;;;23.05;8.85;;;5.90;99.90;;;5.80;69.56;102369.66;5225578;28;20055;-72
2022/03/26 03:43:32;;;;;;;24.20;9.00;;;5.90;99.90;;;5.78;69.67;102369.56;5225306;28;20040;-71
2022/03/26 03:46:04;;;;;;;21.48;9.15;;;5.90;99.90;;;5.72;69.86;102372.56;5225696;28;20045;-71
2022/03/26 03:48:36;;;;;;;22.40;8.65;;;5.80;99.90;;;5.66;70.18;102376.34;5224778;28;20048;-72
2022/03/26 03:51:08;;;;;;;27.52;10.05;;;5.80;99.90;;;5.62;70.42;102376.91;5224958;28;20045;-71
2022/03/26 03:53:42;;;;;;;22.35;8.98;;;5.70;99.90;;;5.54;70.56;102373.72;5225297;28;20053;-72
2022/03/26 03:56:14;;;;;;;23.95;9.63;;;5.70;99.90;;;5.53;70.97;102376.16;5225125;28;20053;-72
2022/03/26 03:58:46;;;;;;;25.48;8.00;;;5.70;99.90;;;5.48;70.81;102375.81;5225117;28;20048;-72
2022/03/26 04:01:18;;;;;;;25.35;9.07;;;5.60;99.90;;;5.46;71.11;102372.16;5225083;28;20053;-74
2022/03/26 04:03:50;;;;;;;28.90;9.70;;;5.60;99.90;;;5.43;71.42;102372.84;5225330;28;20049;-72
2022/03/26 04:06:22;;;;;;;23.85;9.05;;;5.50;99.90;;;5.40;71.36;102376.84;5238971;28;20045;-72
2022/03/26 04:08:56;;;;;;;25.00;8.85;;;5.50;99.90;;;5.37;71.35;102374.03;5245582;28;20511;-72
2022/03/26 04:11:29;;;;;;;26.58;9.43;;;5.50;99.90;;;5.35;71.74;102378.19;5246167;28;20484;-73
2022/03/26 04:14:01;;;;;;;24.65;9.27;;;5.50;99.90;;;5.33;71.77;102374.56;5250082;28;20084;-72
2022/03/26 04:16:33;;;;;;;20.35;8.10;;;5.40;99.90;;;5.31;71.88;102376.13;5249832;28;20045;-73
2022/03/26 04:19:05;;;;;;;24.90;8.75;;;5.40;99.90;;;5.29;71.93;102378.59;5249367;28;20054;-72
2022/03/26 04:21:36;;;;;;;24.55;8.93;;;5.40;99.90;;;5.26;72.04;102377.41;5249366;28;20139;-71
2022/03/26 04:24:10;;;;;;;23.13;8.80;;;5.40;99.90;;;5.24;71.98;102373.81;5249958;28;20052;-72
2022/03/26 04:26:42;;;;;;;22.33;7.78;;;5.30;99.90;;;5.24;71.92;102379.00;5249566;28;20127;-71
2022/03/26 04:29:14;;;;;;;21.88;8.48;;;5.30;99.90;;;5.24;71.88;102389.34;5249322;28;20049;-72
2022/03/26 04:31:46;;;;;;;24.08;9.02;;;5.30;99.90;;;5.22;71.94;102391.81;5249173;28;20131;-73
2022/03/26 04:34:19;;;;;;;22.15;8.38;;;5.30;99.90;;;5.20;72.22;102387.25;5249571;28;20045;-72
2022/03/26 04:36:52;;;;;;;24.98;9.02;;;5.30;99.90;;;5.17;72.01;102385.34;5249411;28;20514;-73
2022/03/26 04:39:25;;;;;;;23.17;8.48;;;5.30;99.90;;;5.13;71.79;102385.84;5248676;28;20054;-72
2022/03/26 04:41:57;;;;;;;28.52;8.52;;;5.20;99.90;;;5.08;72.07;102388.06;5250039;28;20053;-72
2022/03/26 04:44:29;;;;;;;24.60;9.05;;;5.20;99.90;;;5.03;72.30;102384.22;5249346;28;20051;-73
2022/03/26 04:47:01;;;;;;;24.08;9.20;;;5.20;99.90;;;5.01;72.27;102385.75;5248566;28;20045;-72
2022/03/26 04:49:33;;;;;;;21.45;9.73;;;5.20;99.90;;;5.00;72.56;102394.28;5249075;28;20048;-72
2022/03/26 04:52:06;;;;;;;32.97;9.25;;;5.10;99.90;;;4.94;72.61;102396.38;5249152;28;20048;-72
2022/03/26 04:54:41;;;;;;;24.45;8.73;;;5.10;99.90;;;4.91;72.70;102393.53;5249287;28;20055;-71
2022/03/26 04:57:13;;;;;;;26.17;9.32;;;5.10;99.90;;;4.89;72.82;102395.09;5248771;28;20102;-73
2022/03/26 04:59:45;;;;;;;26.27;8.82;;;5.00;99.90;;;4.86;72.65;102394.84;5249095;28;20113;-71
2022/03/26 05:02:17;;;;;;;27.05;9.32;;;5.00;99.90;;;4.81;73.23;102394.44;5249733;28;20139;-72
2022/03/26 05:04:49;;;;;;;24.60;8.95;;;5.00;99.90;;;4.81;73.36;102396.13;5248659;28;20052;-73
2022/03/26 05:10:13;;;;;;;21.38;8.45;;;4.90;99.90;;;4.75;73.74;102405.94;5248623;28;20520;-71
2022/03/26 05:12:47;;;;;;;22.73;8.55;;;4.90;99.90;;;4.72;73.54;102400.53;5248988;28;20128;-71
2022/03/26 05:15:22;;;;;;;25.23;8.63;;;4.90;99.90;;;4.69;73.76;102400.25;5248478;28;20055;-71
2022/03/26 05:17:56;;;;;;;24.65;9.10;;;4.90;99.90;;;4.68;73.84;102411.38;5248289;28;20048;-72
2022/03/26 05:20:28;;;;;;;24.15;9.52;;;4.80;99.90;;;4.66;73.84;102410.34;5248582;28;20060;-72
2022/03/26 05:23:01;;;;;;;22.25;8.07;;;4.80;99.90;;;4.65;74.19;102408.56;5248394;28;20153;-71
2022/03/26 05:25:34;;;;;;;24.23;9.40;;;4.80;99.90;;;4.63;74.44;102411.91;5248664;28;20040;-72
2022/03/26 05:28:07;;;;;;;23.92;9.38;;;4.80;99.90;;;4.64;74.24;102412.81;5248205;28;20489;-73
2022/03/26 05:30:40;;;;;;;21.42;8.57;;;4.80;99.90;;;4.64;74.57;102420.56;5248295;28;20590;-71
2022/03/26 05:33:12;;;;;;;25.58;9.55;;;4.80;99.90;;;4.68;74.44;102414.84;5248553;28;20055;-71
2022/03/26 05:35:44;;;;;;;26.85;9.40;;;4.80;99.90;;;4.74;74.57;102414.47;5247918;28;20048;-72
2022/03/26 05:38:16;;;;;;;25.75;8.52;;;4.80;99.90;;;4.78;74.40;102421.72;5247807;28;20482;-72
2022/03/26 05:40:50;;;;;;;23.83;8.75;;;4.80;99.90;;;4.81;73.86;102422.88;5247826;28;20484;-71
2022/03/26 05:43:23;;;;;;;19.75;8.63;;;4.90;99.90;;;4.90;73.94;102427.91;5247863;28;20056;-72
2022/03/26 05:45:55;;;;;;;24.63;9.05;;;4.90;99.90;;;4.96;73.39;102431.00;5248125;28;20048;-71
2022/03/26 05:48:27;;;;;;;27.25;9.55;;;5.00;99.90;;;5.01;73.08;102432.28;5247287;28;20102;-72
2022/03/26 05:50:59;;;;;;;25.73;9.27;;;5.10;99.90;;;5.08;72.96;102437.16;5247819;28;20050;-71
2022/03/26 05:53:31;;;;;;;20.48;7.78;;;5.10;99.90;;;5.17;72.69;102439.63;5247728;28;20054;-72
2022/03/26 05:56:05;;;;;;;22.83;7.65;;;5.20;99.90;;;5.27;72.30;102438.69;5247889;28;20496;-72
2022/03/26 05:58:37;;;;;;;21.77;8.10;;;5.30;99.90;;;5.36;72.16;102449.81;5247495;28;20054;-72
2022/03/26 06:01:09;;;;;;;23.63;8.50;;;5.40;99.90;;;5.45;71.82;102447.97;5247900;28;20054;-71
2022/03/26 06:03:41;;;;;;;24.90;9.35;;;5.40;99.90;;;5.55;71.39;102445.34;5247618;28;20048;-71
2022/03/26 06:06:13;;;;;;;26.55;8.85;;;5.50;99.90;;;5.68;71.08;102447.25;5298736;23;20040;-74
2022/03/26 06:08:46;;;;;;;22.70;9.60;;;5.60;99.90;;;5.82;70.83;102451.84;5222576;28;20048;-73
2022/03/26 06:11:19;;;;;;;22.42;7.85;;;5.70;99.90;;;5.95;70.27;102451.19;5247730;28;20080;-72
2022/03/26 06:13:51;;;;;;;23.63;7.95;;;5.90;99.90;;;6.06;69.74;102458.09;5247095;28;20059;-71
2022/03/26 06:16:23;;;;;;;26.17;8.48;;;5.90;99.90;;;6.19;69.15;102459.97;5247014;28;20054;-71
2022/03/26 06:18:55;;;;;;;26.52;9.02;;;6.10;99.90;;;6.29;69.08;102457.31;5246881;28;20115;-71
2022/03/26 06:21:28;;;;;;;27.17;9.45;;;6.20;99.90;;;6.43;68.28;102467.06;5245961;28;20059;-70
2022/03/26 06:24:01;;;;;;;27.60;8.95;;;6.30;99.90;;;6.99;68.04;102467.03;5226106;28;20539;-70
2022/03/26 06:26:36;;;;;;;28.30;9.73;;;6.50;99.90;;;8.19;65.22;102471.50;5226688;28;20059;-71
2022/03/26 06:29:08;;;;;;;24.48;9.43;;;7.10;99.90;;;9.47;61.14;102465.63;5225808;28;20537;-72
2022/03/26 06:31:40;;;;;;;22.27;8.93;;;8.00;99.90;;;10.65;57.42;102469.63;5226089;28;20503;-71
2022/03/26 06:34:12;;;;;;;23.65;9.38;;;8.90;99.90;;;11.74;53.39;102475.22;5225736;28;20045;-71
2022/03/26 06:36:44;;;;;;;23.38;8.90;;;9.80;97.70;;;12.71;50.17;102474.50;5226216;28;20049;-70
2022/03/26 06:39:16;;;;;;;23.23;8.75;;;10.80;94.60;;;13.62;46.74;102477.38;5226572;28;20405;-69
2022/03/26 06:41:50;;;;;;;22.88;8.05;;;11.60;90.60;;;14.44;44.31;102482.13;5219346;28;20049;-70
2022/03/26 06:44:22;;;;;;;23.08;9.13;;;12.40;84.10;;;15.16;42.56;102478.38;5225987;28;20045;-70
2022/03/26 06:46:53;;;;;;;21.52;8.75;;;13.10;78.80;;;15.83;40.65;102478.56;5225919;28;20047;-70
2022/03/26 06:49:30;;;;;;;21.73;9.63;;;13.70;74.10;;;16.47;38.82;102478.41;5225586;28;20053;-72
2022/03/26 06:52:02;;;;;;;24.20;10.35;;;14.30;70.80;;;17.03;37.50;102487.50;5226084;28;20044;-72
2022/03/26 06:54:34;;;;;;;26.08;10.65;;;14.90;66.70;;;17.59;36.23;102485.00;5226233;28;20045;-74
2022/03/26 06:57:08;;;;;;;25.83;10.77;;;15.40;64.20;;;18.16;35.11;102487.72;5225363;28;20068;-72
2022/03/26 06:59:40;;;;;;;22.48;10.60;;;16.00;62.10;;;18.68;34.17;102495.47;5225617;28;20071;-70
2022/03/26 07:02:12;;;;;;;29.40;14.18;;;16.50;60.20;;;19.16;32.94;102496.75;5225446;28;20077;-69
2022/03/26 07:04:44;;;;;;;38.08;17.05;;;16.90;58.00;;;19.51;32.39;102495.03;5225836;28;20056;-68
2022/03/26 07:07:16;;;;;;;33.63;13.68;;;17.30;57.00;;;19.85;31.82;102501.19;5226016;28;20045;-69
2022/03/26 07:09:48;;;;;;;28.98;13.07;;;17.60;55.80;;;20.14;31.07;102496.53;5225731;28;20045;-69
2022/03/26 07:12:21;;;;;;;32.85;13.35;;;17.90;54.60;;;20.56;30.67;102499.25;5225609;28;20049;-68
2022/03/26 07:14:54;;;;;;;29.35;13.52;;;18.30;53.90;;;20.95;30.15;102506.22;5225311;28;20053;-67
2022/03/26 07:17:27;;;;;;;28.15;12.10;;;18.60;53.10;;;21.28;29.77;102509.53;5225011;28;20052;-68
2022/03/26 07:19:59;;;;;;;29.77;12.38;;;19.00;52.50;;;21.59;29.16;102508.28;5225844;28;20048;-69
2022/03/26 07:22:31;;;;;;;26.27;12.52;;;19.30;51.70;;;21.85;28.41;102500.75;5232510;28;20135;-68
2022/03/26 07:25:05;;;;;;;24.40;12.15;;;19.60;50.70;;;22.05;28.19;102509.00;5245822;28;20051;-69
2022/03/26 07:27:39;;;;;;;30.77;14.00;;;19.80;50.20;;;22.35;27.64;102511.22;5245956;28;20425;-69
2022/03/26 07:30:12;;;;;;;30.42;14.02;;;20.00;49.60;;;22.60;27.62;102514.19;5246007;28;20053;-68
2022/03/26 07:32:44;;;;;;;28.08;12.00;;;20.20;49.30;;;22.89;26.69;102520.78;5246049;28;20410;-68
2022/03/26 07:35:16;;;;;;;28.13;12.60;;;20.40;48.40;;;23.11;26.58;102519.22;5246006;28;20044;-69
2022/03/26 07:37:48;;;;;;;26.88;11.50;;;20.70;48.10;;;23.36;26.41;102515.06;5245209;28;20409;-69
2022/03/26 07:40:21;;;;;;;27.08;12.40;;;20.90;47.70;;;23.44;26.26;102518.66;5245768;28;20048;-74
2022/03/26 07:42:54;;;;;;;26.42;12.25;;;21.00;47.50;;;23.67;25.89;102525.97;5246417;28;20053;-69
2022/03/26 07:45:26;;;;;;;24.77;12.70;;;21.20;47.00;;;23.82;25.80;102529.66;5246359;28;20500;-68
2022/03/26 07:47:59;;;;;;;27.23;12.15;;;21.30;47.00;;;23.99;25.47;102519.09;5248999;28;20051;-68
2022/03/26 07:50:32;;;;;;;29.88;13.23;;;21.40;46.70;;;24.19;25.40;102526.31;5250501;28;20050;-69
2022/03/26 07:53:04;;;;;;;30.20;12.85;;;21.60;46.50;;;24.39;25.13;102523.78;5235677;28;20099;-69
2022/03/26 07:55:36;;;;;;;32.75;13.38;;;21.70;46.50;;;24.63;24.73;102524.81;5229077;28;20057;-68
2022/03/26 07:58:09;;;;;;;24.67;11.00;;;21.90;45.70;;;24.77;25.36;102527.50;5229248;28;20492;-56
2022/03/26 08:00:41;;;;;;;20.17;9.25;;;22.10;46.60;;;24.85;26.33;102524.91;5227914;28;20049;-56
2022/03/26 08:03:13;;;;;;;30.45;13.30;;;22.20;47.50;;;25.27;24.63;102524.13;5228508;28;20052;-70
2022/03/26 08:05:45;;;;;;;27.10;12.60;;;22.50;45.80;;;25.31;25.10;102525.03;5228224;28;20048;-68
2022/03/26 08:08:17;;;;;;;29.45;13.40;;;22.60;46.40;;;25.37;25.08;102525.03;5227779;28;20052;-69
2022/03/26 08:10:49;;;;;;;25.75;13.57;;;22.70;46.30;;;25.45;25.08;102517.91;5226681;28;20045;-68
2022/03/26 08:13:23;;;;;;;27.08;12.70;;;22.70;46.30;;;25.47;25.20;102521.47;5228092;28;20053;-68
2022/03/26 08:15:55;;;;;;;23.45;12.10;;;22.80;46.20;;;25.33;25.21;102521.44;5228641;28;20498;-68
2022/03/26 08:18:27;;;;;;;27.83;12.50;;;22.70;46.00;;;25.43;25.09;102519.69;5228828;28;20045;-68
2022/03/26 08:20:59;;;;;;;26.20;11.88;;;22.70;46.40;;;25.43;25.31;102525.91;5237954;28;20055;-68
2022/03/26 08:23:31;;;;;;;24.27;12.18;;;22.70;46.30;;;25.54;25.12;102531.25;5227719;28;20091;-67
2022/03/26 08:29:00;;;;;;;27.70;13.00;;;22.90;45.60;;;25.59;25.03;102533.94;5226449;28;20514;-71
2022/03/26 08:31:36;;;;;;;28.23;12.35;;;22.90;46.20;;;25.51;25.44;102539.28;5228388;28;20055;-67
2022/03/26 08:34:08;;;;;;;26.15;13.15;;;22.90;46.20;;;25.48;25.03;102539.25;5228743;28;20041;-67
2022/03/26 08:36:40;;;;;;;25.30;12.80;;;22.90;45.60;;;25.13;25.33;102537.44;5228712;28;20477;-74
2022/03/26 08:39:12;;;;;;;26.20;12.45;;;22.60;45.70;;;24.81;25.79;102541.75;5228025;28;20052;-70
2022/03/26 08:41:45;;;;;;;30.38;13.30;;;22.40;46.00;;;24.51;26.08;102535.41;5228469;28;20048;-69
2022/03/26 08:44:18;;;;;;;27.05;13.57;;;22.10;46.60;;;24.54;26.17;102538.09;5228403;28;20461;-67
2022/03/26 08:46:51;;;;;;;31.77;13.02;;;22.00;46.90;;;24.69;25.84;102531.94;5228684;28;20045;-71
2022/03/26 08:49:23;;;;;;;30.27;13.25;;;22.10;46.60;;;24.82;25.73;102536.44;5228060;28;20516;-66
2022/03/26 08:51:56;;;;;;;27.30;13.00;;;22.20;46.60;;;24.89;25.63;102538.22;5223510;28;20085;-68
2022/03/26 08:54:28;;;;;;;26.77;13.38;;;22.40;46.30;;;24.76;26.00;102531.06;5221465;28;20060;-68
2022/03/26 08:57:01;;;;;;;26.40;13.00;;;22.30;46.60;;;24.88;26.01;102530.22;5224823;28;20148;-67
2022/03/26 08:59:34;;;;;;;29.85;14.00;;;22.40;46.50;;;24.97;25.79;102529.34;5227992;28;20417;-69
2022/03/26 09:02:06;;;;;;;31.05;13.60;;;22.50;46.40;;;25.01;26.21;102520.47;5230323;28;20044;-69
2022/03/26 09:04:38;;;;;;;29.95;14.50;;;22.70;46.30;;;24.86;25.56;102530.22;5226701;28;20055;-68
2022/03/26 09:07:10;;;;;;;28.55;12.93;;;22.70;45.60;;;24.64;26.05;102528.34;5240402;28;20122;-70
2022/03/26 09:09:42;;;;;;;28.88;14.13;;;22.70;45.70;;;24.40;26.29;102528.28;5245392;28;20048;-71
2022/03/26 09:12:14;;;;;;;29.55;14.00;;;22.70;45.80;;;23.78;26.96;102533.16;5241511;28;20076;-70
2022/03/26 09:14:48;;;;;;;25.42;11.52;;;22.40;45.90;;;23.07;28.15;102527.16;5230143;28;20049;-70
2022/03/26 09:17:20;;;;;;;29.65;13.38;;;22.00;47.00;;;22.53;29.39;102528.28;5227299;28;20037;-69
2022/03/26 09:19:52;;;;;;;29.77;12.70;;;21.70;47.70;;;22.06;29.82;102523.16;5227929;28;20143;-68
2022/03/26 09:22:24;;;;;;;31.27;13.18;;;21.40;48.00;;;21.39;31.42;102518.56;5226837;28;20045;-68
2022/03/26 09:24:56;;;;;;;30.38;13.25;;;20.90;49.30;;;21.01;32.11;102517.84;5227853;28;20048;-69
2022/03/26 09:27:28;;;;;;;29.73;13.50;;;20.50;50.00;;;20.74;32.28;102514.66;5228116;28;20056;-69
2022/03/26 09:30:01;;;;;;;28.42;12.93;;;20.30;50.10;;;20.49;33.48;102510.59;5227835;28;20048;-68
2022/03/26 09:32:34;;;;;;;31.40;12.55;;;20.00;51.60;;;20.26;33.57;102518.88;5228302;28;20585;-68
2022/03/26 09:35:06;;;;;;;31.42;12.27;;;19.80;51.70;;;20.15;34.36;102515.13;5221375;28;20045;-68
2022/03/26 09:37:40;;;;;;;31.55;12.80;;;19.60;53.00;;;20.18;34.58;102509.00;5220715;28;20047;-68
2022/03/26 09:40:13;;;;;;;31.10;12.20;;;19.50;52.70;;;20.26;34.39;102513.59;5245906;28;20460;-68
2022/03/26 09:42:45;;;;;;;29.10;12.70;;;19.50;52.90;;;20.40;34.26;102510.34;5246474;28;20135;-68
2022/03/26 09:45:19;;;;;;;30.92;13.50;;;19.70;52.90;;;20.56;34.66;102513.41;5247039;28;20156;-68
2022/03/26 09:47:53;;;;;;;28.48;12.10;;;19.80;53.40;;;20.62;34.67;102515.28;5239585;28;20053;-67
2022/03/26 09:50:25;;;;;;;25.88;12.80;;;19.80;53.50;;;20.51;34.58;102511.50;5227234;28;20045;-69
2022/03/26 09:52:57;;;;;;;19.10;8.68;;;19.80;53.30;;;20.65;35.65;102507.38;5226743;28;20440;-55
2022/03/26 09:55:31;;;;;;;29.63;12.45;;;19.90;55.30;;;20.98;34.58;102506.25;5234648;28;20043;-68
2022/03/26 09:58:03;;;;;;;18.65;8.32;;;20.20;53.50;;;21.33;34.17;102502.56;5248246;28;20055;-66
2022/03/26 10:00:37;;;;;;;26.63;11.82;;;20.50;53.00;;;21.54;33.48;102509.97;5248375;28;20058;-69
2022/03/26 10:03:09;;;;;;;30.50;12.95;;;20.70;52.30;;;21.55;33.77;102505.56;5248520;28;20545;-69
2022/03/26 10:05:41;;;;;;;29.67;12.75;;;20.70;52.50;;;21.52;33.67;102505.53;5239758;28;20146;-70
2022/03/26 10:08:18;;;;;;;31.85;13.23;;;20.80;52.50;;;21.49;33.82;102502.81;5249770;28;20050;-69
2022/03/26 10:10:52;;;;;;;31.98;13.43;;;20.70;52.60;;;21.40;33.08;102500.88;5246994;28;20699;-69
2022/03/26 10:13:38;;;;;;;28.23;12.90;;;20.70;51.90;;;20.97;33.67;102500.06;5245505;28;20137;-71
2022/03/26 10:16:15;;;;;;;37.78;14.18;;;20.40;52.00;;;20.77;34.49;102499.69;5224363;28;20128;-58
2022/03/26 10:18:50;;;;;;;28.42;13.50;;;20.20;53.00;;;20.79;34.94;102497.94;5247498;28;20048;-72
2022/03/26 10:21:23;;;;;;;31.25;13.10;;;20.10;53.60;;;20.91;35.57;102488.47;5247647;28;20050;-71
2022/03/26 10:23:55;;;;;;;31.55;13.25;;;20.10;54.20;;;21.07;35.62;102498.50;5247811;28;20143;-71
2022/03/26 10:26:28;;;;;;;34.38;13.18;;;20.20;54.80;;;21.07;35.22;102491.44;5247608;28;20053;-71
2022/03/26 10:29:00;;;;;;;35.38;14.00;;;20.20;54.30;;;21.07;35.74;102491.44;5232141;28;20531;-71
2022/03/26 10:34:23;;;;;;;34.47;14.02;;;20.30;54.40;;;21.47;35.41;102483.31;5227193;28;20075;-72
2022/03/26 10:37:00;;;;;;;33.90;13.57;;;20.50;54.80;;;21.63;35.00;102486.22;5226687;28;20048;-71
2022/03/26 10:39:33;;;;;;;30.02;12.93;;;20.70;54.60;;;21.73;34.40;102474.00;5226743;28;20437;-72
2022/03/26 10:42:06;;;;;;;31.30;13.02;;;20.80;53.80;;;21.71;34.20;102478.38;5226543;28;20140;-71